Belmont, North Carolina
Current Conditions -  °F | °C
As of 9:52 AM on Saturday 25 Oct 2014 (Local Time) from KCLT Reporting Station
Few Clouds Few Clouds  
Wind Chill: 56°   Ceiling: Unl
Heat Index: 56°   Visibility: 10mi
Dew Point: 46°   Wind: 3mph
Humidity: 69%   Direction: 360°N
Pressure: 30.06"   Gusts: NA
Location:  35.24°N, 81.04°W
Report Text: KCLT 251352Z 36003KT 10SM FEW250 13/08 A3006 RMK AO2 SLP177 T01330078
Loading
Personal Weather Stations






























Interactive Weather Map
Tropical Storm Tracking
New forecast layout! Learn more

10-Day Weather Forecast

Advertisements
Track Severe Weather on mobile